Terminal Aerodrome Forecast
Issued by NWS

Home | Current Version | Previous Version | Text Only | Print | Product List | Glossary On
Versions: 1 2 3 4 5 6 7 8 9 10 11 12
202
FTUS45 KREV 240520
TAFMMH
TAF
KMMH 240520Z 2406/2506 VRB04KT P6SM BKN180
     FM241600 21010G18KT P6SM VCSH SCT080 BKN120
     FM242200 22015G25KT 6SM -SHRASN SCT030 BKN040 OVC050
     FM250300 25010G18KT 2SM -SN BKN020 OVC040=

USA.gov is the U.S. government's official web portal to all federal, state and local government web resources and services.